createdAt,value
2017-08-04T00:00:51.618Z,17.90
2017-08-04T00:03:24.524Z,17.90
2017-08-04T00:05:52.674Z,17.90
2017-08-04T00:08:20.795Z,17.80
2017-08-04T00:10:50.817Z,17.80
2017-08-04T00:13:18.934Z,17.80
2017-08-04T00:15:47.084Z,17.70
2017-08-04T00:18:15.218Z,17.70
2017-08-04T00:20:43.329Z,17.60
2017-08-04T00:23:11.584Z,17.60
2017-08-04T00:25:39.686Z,17.50
2017-08-04T00:28:08.737Z,17.40
2017-08-04T00:30:36.854Z,17.40
2017-08-04T00:33:08.155Z,17.40
2017-08-04T00:35:36.307Z,17.40
2017-08-04T00:38:04.426Z,17.40
2017-08-04T00:40:32.560Z,17.40
2017-08-04T00:43:00.715Z,17.40
2017-08-04T00:45:28.837Z,17.40
2017-08-04T00:48:05.339Z,17.40
2017-08-04T00:50:33.509Z,17.30
2017-08-04T00:53:01.694Z,17.30
2017-08-04T00:55:29.795Z,17.20
2017-08-04T00:57:57.934Z,17.20
2017-08-04T01:00:26.600Z,17.20
2017-08-04T01:06:05.163Z,17.00
2017-08-04T01:08:34.268Z,16.90
2017-08-04T01:11:02.413Z,17.00
2017-08-04T01:13:30.654Z,16.90
2017-08-04T01:15:58.772Z,16.90
2017-08-04T01:18:26.951Z,17.00
2017-08-04T01:20:55.086Z,17.10
2017-08-04T01:23:23.198Z,17.30
2017-08-04T01:26:04.012Z,17.40
2017-08-04T01:28:32.147Z,17.50
2017-08-04T01:31:00.252Z,17.60
2017-08-04T01:33:28.360Z,17.50
2017-08-04T01:35:56.571Z,17.40
2017-08-04T01:38:24.675Z,17.30
2017-08-04T01:40:52.860Z,17.20
2017-08-04T01:43:20.990Z,17.10
2017-08-04T01:45:49.146Z,17.10
2017-08-04T01:48:17.271Z,17.10
2017-08-04T01:50:45.423Z,17.20
2017-08-04T01:53:17.559Z,17.20
2017-08-04T01:55:45.696Z,17.20
2017-08-04T01:58:13.828Z,17.20
2017-08-04T02:00:41.909Z,17.20
2017-08-04T02:03:10.066Z,17.20
2017-08-04T02:05:38.185Z,17.20
2017-08-04T02:08:11.630Z,17.20
2017-08-04T02:10:39.802Z,17.20
2017-08-04T02:13:07.900Z,17.20
2017-08-04T02:15:36.090Z,17.20
2017-08-04T02:18:04.193Z,17.20
2017-08-04T02:20:32.321Z,17.20
2017-08-04T02:23:00.533Z,17.20
2017-08-04T02:25:28.699Z,17.20
2017-08-04T02:27:56.874Z,17.20
2017-08-04T02:30:24.962Z,17.20
2017-08-04T02:32:53.132Z,17.20
2017-08-04T02:35:21.662Z,17.20
2017-08-04T02:37:49.789Z,17.20
2017-08-04T02:40:17.955Z,17.20
2017-08-04T02:42:46.076Z,17.20
2017-08-04T02:45:14.198Z,17.20
2017-08-04T02:47:42.327Z,17.20
2017-08-04T02:50:15.635Z,17.10
2017-08-04T02:52:43.788Z,17.10
2017-08-04T02:55:11.864Z,17.00
2017-08-04T02:57:39.996Z,16.90
2017-08-04T03:00:08.113Z,16.90
2017-08-04T03:02:36.327Z,16.80
2017-08-04T03:05:22.974Z,16.70
2017-08-04T03:07:51.085Z,16.70
2017-08-04T03:10:19.213Z,16.60
2017-08-04T03:12:47.396Z,16.50
2017-08-04T03:15:15.513Z,16.50
2017-08-04T03:17:43.630Z,16.50
2017-08-04T03:20:11.784Z,16.40
2017-08-04T03:22:39.908Z,16.40
2017-08-04T03:25:08.117Z,16.40
2017-08-04T03:27:36.231Z,16.40
2017-08-04T03:30:04.357Z,16.30
2017-08-04T03:32:32.463Z,16.30
2017-08-04T03:35:01.576Z,16.30
2017-08-04T03:37:29.772Z,16.20
2017-08-04T03:39:57.911Z,16.20
2017-08-04T03:42:26.099Z,16.20
2017-08-04T03:44:54.219Z,16.20
2017-08-04T03:47:32.327Z,16.30
2017-08-04T03:50:00.419Z,16.30
2017-08-04T03:52:28.559Z,16.40
2017-08-04T03:54:56.673Z,16.40
2017-08-04T03:57:24.804Z,16.30
2017-08-04T03:59:52.920Z,16.30
2017-08-04T04:02:21.023Z,16.30
2017-08-04T04:04:58.563Z,16.30
2017-08-04T04:07:31.646Z,16.30
2017-08-04T04:09:59.787Z,16.30
2017-08-04T04:12:28.096Z,16.30
2017-08-04T04:14:56.206Z,16.30
2017-08-04T04:17:24.422Z,16.40
2017-08-04T04:19:52.579Z,16.50
2017-08-04T04:22:20.770Z,16.50
2017-08-04T04:24:48.898Z,16.60
2017-08-04T04:27:17.197Z,16.60
2017-08-04T04:29:45.352Z,16.60
2017-08-04T04:32:13.500Z,16.70
2017-08-04T04:34:42.579Z,16.70
2017-08-04T04:37:10.804Z,16.70
2017-08-04T04:39:38.956Z,16.80
2017-08-04T04:42:10.262Z,16.80
2017-08-04T04:44:38.378Z,17.10
2017-08-04T04:47:07.819Z,17.00
2017-08-04T04:49:36.802Z,17.00
2017-08-04T04:52:04.955Z,17.00
2017-08-04T04:54:36.329Z,17.00
2017-08-04T04:57:04.521Z,17.20
2017-08-04T04:59:32.801Z,17.30
2017-08-04T05:02:00.984Z,17.30
2017-08-04T05:04:29.185Z,17.50
2017-08-04T05:07:01.625Z,17.50
2017-08-04T05:09:30.017Z,17.50
2017-08-04T05:11:58.266Z,17.40
2017-08-04T05:14:26.502Z,17.40
2017-08-04T05:16:59.849Z,17.40
2017-08-04T05:19:28.177Z,17.50
2017-08-04T05:21:56.323Z,17.60
2017-08-04T05:24:27.735Z,17.70
2017-08-04T05:26:55.949Z,17.70
2017-08-04T05:29:24.064Z,17.70
2017-08-04T05:31:52.252Z,17.70
2017-08-04T05:34:20.389Z,17.70
2017-08-04T05:36:50.587Z,17.70
2017-08-04T05:39:18.988Z,17.70
2017-08-04T05:41:58.161Z,17.60
2017-08-04T05:44:26.356Z,17.50
2017-08-04T05:46:54.995Z,17.60
2017-08-04T05:49:23.452Z,17.60
2017-08-04T05:51:51.578Z,17.70
2017-08-04T05:54:20.315Z,17.70
2017-08-04T05:56:49.023Z,17.70
2017-08-04T05:59:18.722Z,17.70
2017-08-04T06:01:53.767Z,17.60
2017-08-04T06:04:23.270Z,17.70
2017-08-04T06:06:53.495Z,17.80
2017-08-04T06:09:21.766Z,18.00
2017-08-04T06:11:54.870Z,18.10
2017-08-04T06:14:25.076Z,18.20
2017-08-04T06:17:00.490Z,18.20
2017-08-04T06:19:29.664Z,18.40
2017-08-04T06:22:05.740Z,18.40
2017-08-04T06:24:33.899Z,18.40
2017-08-04T06:27:03.018Z,18.40
2017-08-04T06:29:31.130Z,18.40
2017-08-04T06:31:59.481Z,18.30
2017-08-04T06:34:27.681Z,18.30
2017-08-04T06:37:02.413Z,18.50
2017-08-04T06:39:31.001Z,18.60
2017-08-04T06:41:59.258Z,18.80
2017-08-04T06:44:34.707Z,18.90
2017-08-04T06:47:02.905Z,18.90
2017-08-04T06:49:46.051Z,19.00
2017-08-04T06:52:25.826Z,19.00
2017-08-04T06:55:05.814Z,19.10
2017-08-04T06:57:33.982Z,19.10
2017-08-04T07:00:02.297Z,19.10
2017-08-04T07:02:30.452Z,19.20
2017-08-04T07:04:58.653Z,19.30
2017-08-04T07:07:32.132Z,19.50
2017-08-04T07:10:00.311Z,19.80
2017-08-04T07:12:28.462Z,19.80
2017-08-04T07:14:58.586Z,20.00
2017-08-04T07:17:26.744Z,20.00
2017-08-04T07:19:55.998Z,20.00
2017-08-04T07:22:29.756Z,19.90
2017-08-04T07:24:57.910Z,19.90
2017-08-04T07:27:30.367Z,19.80
2017-08-04T07:30:17.063Z,19.90
2017-08-04T07:35:50.853Z,19.70
2017-08-04T07:38:27.671Z,19.80
2017-08-04T07:40:55.940Z,19.70
2017-08-04T07:49:49.604Z,20.10
2017-08-04T07:52:21.322Z,20.10
2017-08-04T07:57:35.613Z,20.00
2017-08-04T08:00:03.842Z,20.00
2017-08-04T08:02:36.113Z,20.00
2017-08-04T08:05:05.346Z,20.10
2017-08-04T08:07:33.512Z,19.90
2017-08-04T08:10:08.412Z,19.70
2017-08-04T08:12:36.534Z,19.60
2017-08-04T08:15:04.674Z,19.30
2017-08-04T08:17:33.752Z,19.30
2017-08-04T08:20:01.959Z,19.30
2017-08-04T08:22:30.192Z,19.50
2017-08-04T08:24:58.383Z,19.60
2017-08-04T08:27:26.497Z,19.60
2017-08-04T08:29:54.658Z,19.60
2017-08-04T08:32:23.810Z,19.60
2017-08-04T08:34:54.649Z,19.70
2017-08-04T08:37:23.320Z,20.00
2017-08-04T08:39:51.597Z,20.30
2017-08-04T08:42:19.866Z,20.70
2017-08-04T08:44:48.027Z,20.80
2017-08-04T08:47:16.167Z,21.00
2017-08-04T08:49:46.199Z,20.90
2017-08-04T08:52:14.484Z,20.80
2017-08-04T08:54:43.026Z,20.70
2017-08-04T08:57:11.205Z,20.80
2017-08-04T08:59:39.465Z,20.80
2017-08-04T09:02:17.448Z,20.70
2017-08-04T09:04:46.303Z,20.80
2017-08-04T09:07:17.888Z,20.90
2017-08-04T09:09:46.414Z,20.90
2017-08-04T09:12:14.641Z,20.80
2017-08-04T09:14:46.917Z,20.80
2017-08-04T09:17:16.865Z,20.80
2017-08-04T09:20:04.872Z,21.10
2017-08-04T09:22:34.513Z,21.50
2017-08-04T09:25:03.876Z,21.50
2017-08-04T09:27:32.668Z,21.50
2017-08-04T09:30:01.033Z,21.50
2017-08-04T09:32:29.544Z,21.30
2017-08-04T09:34:58.338Z,21.10
2017-08-04T09:37:29.886Z,21.20
2017-08-04T09:39:58.255Z,21.40
2017-08-04T09:42:26.787Z,21.60
2017-08-04T09:47:57.200Z,22.00
2017-08-04T09:50:25.754Z,22.10
2017-08-04T09:55:54.135Z,21.90
2017-08-04T09:58:24.075Z,21.60
2017-08-04T10:00:53.277Z,21.40
2017-08-04T10:03:22.988Z,21.30
2017-08-04T10:05:52.795Z,21.20
2017-08-04T10:11:23.143Z,21.40
2017-08-04T10:14:00.010Z,21.50
2017-08-04T10:16:37.341Z,21.80
2017-08-04T10:21:41.910Z,22.40
2017-08-04T10:26:44.425Z,22.30
2017-08-04T10:29:13.164Z,22.20
2017-08-04T10:31:47.860Z,22.10
2017-08-04T10:34:18.955Z,21.90
2017-08-04T10:36:52.324Z,21.70
2017-08-04T10:39:21.486Z,21.70
2017-08-04T10:41:56.856Z,21.90
2017-08-04T10:44:25.756Z,22.10
2017-08-04T10:46:56.113Z,22.20
2017-08-04T10:49:26.080Z,22.10
2017-08-04T10:52:00.947Z,21.80
2017-08-04T10:54:30.562Z,22.10
2017-08-04T10:56:58.836Z,22.30
2017-08-04T10:59:27.175Z,22.50
2017-08-04T11:04:51.384Z,22.50
2017-08-04T11:07:19.640Z,22.70
2017-08-04T11:09:48.221Z,22.70
2017-08-04T11:12:16.525Z,22.60
2017-08-04T11:14:44.847Z,22.60
2017-08-04T11:17:12.968Z,22.80
2017-08-04T11:19:42.059Z,22.70
2017-08-04T11:22:10.725Z,22.60
2017-08-04T11:24:39.073Z,22.50
2017-08-04T11:27:10.706Z,22.50
2017-08-04T11:29:52.448Z,22.50
2017-08-04T11:32:21.555Z,22.50
2017-08-04T11:34:49.784Z,22.40
2017-08-04T11:37:18.083Z,22.60
2017-08-04T11:39:46.333Z,23.00
2017-08-04T11:42:14.588Z,23.10
2017-08-04T11:44:42.958Z,23.00
2017-08-04T11:47:13.401Z,22.90
2017-08-04T11:49:41.663Z,22.80
2017-08-04T11:52:10.694Z,23.00
2017-08-04T11:54:38.925Z,23.20
2017-08-04T11:57:07.254Z,23.30
2017-08-04T11:59:35.461Z,23.30
2017-08-04T12:02:03.712Z,23.10
2017-08-04T12:04:35.172Z,23.00
2017-08-04T12:07:03.324Z,23.10
2017-08-04T12:09:31.503Z,23.30
2017-08-04T12:11:59.624Z,23.40
2017-08-04T12:14:28.839Z,23.30
2017-08-04T12:16:56.988Z,22.90
2017-08-04T12:19:25.212Z,22.50
2017-08-04T12:21:53.340Z,22.30
2017-08-04T12:24:35.143Z,22.30
2017-08-04T12:27:03.471Z,22.20
2017-08-04T12:29:48.322Z,22.50
2017-08-04T12:32:16.564Z,22.60
2017-08-04T12:34:44.717Z,22.50
2017-08-04T12:37:13.945Z,22.90
2017-08-04T12:39:42.110Z,23.30
2017-08-04T12:42:10.269Z,23.50
2017-08-04T12:44:38.489Z,23.90
2017-08-04T12:47:06.638Z,24.10
2017-08-04T12:49:34.776Z,24.00
2017-08-04T12:52:02.910Z,23.90
2017-08-04T12:54:31.139Z,23.90
2017-08-04T12:56:59.397Z,24.00
2017-08-04T12:59:27.574Z,24.00
2017-08-04T13:01:56.851Z,23.90
2017-08-04T13:04:25.891Z,23.90
2017-08-04T13:06:54.032Z,23.90
2017-08-04T13:09:22.325Z,23.70
2017-08-04T13:11:50.486Z,23.50
2017-08-04T13:14:18.732Z,23.40
2017-08-04T13:16:46.963Z,23.10
2017-08-04T13:19:15.262Z,23.00
2017-08-04T13:21:43.438Z,23.00
2017-08-04T13:24:11.742Z,23.10
2017-08-04T13:26:46.662Z,23.30
2017-08-04T13:29:15.046Z,23.40
2017-08-04T13:31:43.219Z,23.30
2017-08-04T13:34:11.330Z,23.10
2017-08-04T13:36:44.407Z,23.10
2017-08-04T13:39:12.743Z,23.20
2017-08-04T13:41:41.113Z,23.40
2017-08-04T13:44:09.251Z,23.60
2017-08-04T13:46:37.480Z,23.70
2017-08-04T13:49:05.655Z,23.70
2017-08-04T13:51:34.031Z,23.90
2017-08-04T13:54:02.356Z,23.90
2017-08-04T13:56:30.916Z,23.60
2017-08-04T13:58:59.142Z,23.40
2017-08-04T14:01:27.387Z,23.30
2017-08-04T14:03:55.591Z,23.20
2017-08-04T14:06:23.906Z,23.00
2017-08-04T14:08:52.015Z,23.00
2017-08-04T14:11:20.377Z,22.70
2017-08-04T14:13:48.715Z,22.60
2017-08-04T14:16:16.883Z,22.90
2017-08-04T14:18:45.190Z,23.30
2017-08-04T14:21:13.470Z,23.40
2017-08-04T14:23:41.651Z,23.40
2017-08-04T14:26:09.748Z,23.10
2017-08-04T14:28:38.283Z,22.90
2017-08-04T14:31:09.465Z,22.70
2017-08-04T14:33:37.612Z,22.80
2017-08-04T14:36:06.440Z,22.80
2017-08-04T14:38:35.352Z,22.50
2017-08-04T14:41:17.163Z,22.40
2017-08-04T14:43:46.416Z,22.20
2017-08-04T14:46:14.573Z,21.90
2017-08-04T14:48:42.760Z,21.70
2017-08-04T14:51:10.883Z,21.50
2017-08-04T14:53:39.072Z,21.70
2017-08-04T14:56:09.364Z,22.00
2017-08-04T14:58:49.977Z,22.20
2017-08-04T15:01:18.617Z,22.20
2017-08-04T15:03:48.446Z,22.30
2017-08-04T15:06:16.864Z,22.30
2017-08-04T15:08:45.155Z,22.30
2017-08-04T15:11:13.987Z,22.30
2017-08-04T15:13:45.195Z,22.40
2017-08-04T15:16:13.384Z,22.40
2017-08-04T15:18:41.803Z,22.50
2017-08-04T15:21:13.016Z,22.60
2017-08-04T15:23:44.882Z,22.50
2017-08-04T15:26:13.079Z,22.60
2017-08-04T15:28:41.199Z,22.60
2017-08-04T15:31:14.137Z,22.60
2017-08-04T15:33:42.340Z,22.50
2017-08-04T15:36:11.416Z,22.40
2017-08-04T15:38:39.618Z,22.40
2017-08-04T15:41:07.890Z,22.30
2017-08-04T15:43:36.041Z,22.10
2017-08-04T15:46:04.186Z,22.00
2017-08-04T15:48:32.435Z,22.00
2017-08-04T15:51:00.563Z,22.00
2017-08-04T15:53:29.382Z,21.90
2017-08-04T15:55:57.807Z,21.90
2017-08-04T15:58:26.054Z,21.90
2017-08-04T16:01:01.532Z,22.10
2017-08-04T16:03:29.648Z,22.10
2017-08-04T16:05:59.741Z,22.10
2017-08-04T16:08:28.782Z,22.20
2017-08-04T16:10:57.111Z,22.20
2017-08-04T16:13:25.253Z,22.20
2017-08-04T16:15:53.463Z,22.10
2017-08-04T16:18:21.645Z,22.20
2017-08-04T16:20:51.708Z,22.20
2017-08-04T16:23:19.881Z,22.10
2017-08-04T16:25:50.174Z,21.90
2017-08-04T16:28:18.334Z,21.80
2017-08-04T16:30:48.563Z,21.80
2017-08-04T16:33:16.689Z,21.60
2017-08-04T16:35:47.330Z,21.70
2017-08-04T16:38:16.398Z,22.00
2017-08-04T16:40:44.557Z,22.10
2017-08-04T16:43:12.799Z,22.10
2017-08-04T16:45:40.906Z,21.90
2017-08-04T16:48:09.027Z,21.80
2017-08-04T16:50:37.237Z,22.00
2017-08-04T16:53:05.374Z,22.10
2017-08-04T16:55:33.533Z,22.20
2017-08-04T16:58:01.633Z,22.20
2017-08-04T17:00:29.883Z,22.10
2017-08-04T17:02:58.070Z,22.10
2017-08-04T17:05:26.305Z,22.00
2017-08-04T17:08:00.942Z,22.00
2017-08-04T17:10:29.091Z,21.90
2017-08-04T17:12:58.253Z,21.80
2017-08-04T17:15:27.778Z,21.70
2017-08-04T17:17:57.027Z,21.70
2017-08-04T17:20:25.315Z,21.60
2017-08-04T17:22:53.648Z,21.50
2017-08-04T17:25:26.457Z,21.50
2017-08-04T17:27:56.737Z,21.40
2017-08-04T17:30:25.043Z,21.40
2017-08-04T17:32:53.560Z,21.30
2017-08-04T17:35:21.770Z,21.30
2017-08-04T17:37:49.956Z,21.30
2017-08-04T17:40:20.287Z,21.30
2017-08-04T17:42:48.493Z,21.40
2017-08-04T17:45:16.742Z,21.40
2017-08-04T17:47:44.885Z,21.40
2017-08-04T17:50:13.095Z,21.50
2017-08-04T17:52:42.110Z,21.50
2017-08-04T17:55:16.995Z,21.40
2017-08-04T17:57:45.282Z,21.20
2017-08-04T18:00:13.358Z,21.10
2017-08-04T18:02:53.509Z,20.90
2017-08-04T18:05:27.105Z,20.80
2017-08-04T18:08:09.884Z,20.70
2017-08-04T18:10:54.739Z,20.60
2017-08-04T18:13:25.881Z,20.50
2017-08-04T18:15:54.573Z,20.50
2017-08-04T18:18:22.699Z,20.40
2017-08-04T18:20:50.971Z,20.40
2017-08-04T18:23:31.370Z,20.40
2017-08-04T18:25:59.507Z,20.30
2017-08-04T18:28:27.654Z,20.30
2017-08-04T18:31:03.901Z,20.40
2017-08-04T18:33:32.064Z,20.40
2017-08-04T18:36:05.014Z,20.30
2017-08-04T18:38:33.206Z,20.20
2017-08-04T18:41:02.320Z,20.10
2017-08-04T18:43:33.344Z,20.00
2017-08-04T18:46:01.490Z,19.90
2017-08-04T18:48:30.429Z,19.90
2017-08-04T18:50:59.338Z,19.80
2017-08-04T18:53:38.412Z,19.70
2017-08-04T18:56:06.792Z,19.60
2017-08-04T18:58:34.989Z,19.60
2017-08-04T19:01:05.103Z,19.50
2017-08-04T19:03:35.320Z,19.50
2017-08-04T19:06:03.590Z,19.40
2017-08-04T19:08:49.984Z,19.40
2017-08-04T19:11:18.310Z,19.30
2017-08-04T19:14:00.035Z,19.30
2017-08-04T19:16:33.735Z,19.20
2017-08-04T19:19:02.041Z,19.20
2017-08-04T19:21:33.163Z,19.10
2017-08-04T19:24:02.584Z,19.10
2017-08-04T19:29:21.350Z,19.00
2017-08-04T19:31:52.498Z,18.90
2017-08-04T19:34:22.018Z,18.90
2017-08-04T19:36:53.121Z,18.90
2017-08-04T19:39:28.510Z,18.80
2017-08-04T19:41:57.594Z,18.80
2017-08-04T19:44:25.856Z,18.70
2017-08-04T19:47:00.869Z,18.70
2017-08-04T19:49:30.062Z,18.70
2017-08-04T19:52:01.748Z,18.60
2017-08-04T19:54:33.863Z,18.60
2017-08-04T19:57:02.095Z,18.50
2017-08-04T19:59:31.193Z,18.50
2017-08-04T20:02:02.103Z,18.50
2017-08-04T20:04:31.735Z,18.40
2017-08-04T20:07:03.259Z,18.40
2017-08-04T20:09:31.378Z,18.40
2017-08-04T20:11:59.563Z,18.30
2017-08-04T20:14:29.024Z,18.30
2017-08-04T20:16:57.335Z,18.30
2017-08-04T20:19:27.640Z,18.20
2017-08-04T20:21:56.116Z,18.20
2017-08-04T20:24:24.337Z,18.20
2017-08-04T20:26:52.410Z,18.20
2017-08-04T20:29:20.554Z,18.10
2017-08-04T20:31:48.678Z,18.10
2017-08-04T20:34:18.466Z,18.10
2017-08-04T20:36:46.597Z,18.10
2017-08-04T20:39:14.698Z,18.10
2017-08-04T20:41:43.992Z,18.10
2017-08-04T20:44:12.116Z,18.10
2017-08-04T20:46:40.255Z,18.10
2017-08-04T20:49:09.589Z,18.10
2017-08-04T20:51:37.777Z,18.10
2017-08-04T20:54:05.883Z,18.00
2017-08-04T20:56:35.173Z,17.90
2017-08-04T20:59:11.147Z,17.80
2017-08-04T21:01:41.337Z,17.80
2017-08-04T21:04:10.629Z,17.80
2017-08-04T21:06:41.480Z,17.70
2017-08-04T21:09:10.210Z,17.70
2017-08-04T21:11:40.431Z,17.70
2017-08-04T21:14:09.661Z,17.60
2017-08-04T21:16:42.074Z,17.60
2017-08-04T21:19:10.208Z,17.60
2017-08-04T21:21:50.838Z,17.60
2017-08-04T21:24:19.138Z,17.60
2017-08-04T21:26:47.368Z,17.70
2017-08-04T21:29:16.399Z,17.70
2017-08-04T21:31:44.539Z,17.60
2017-08-04T21:34:12.719Z,17.60
2017-08-04T21:36:54.241Z,17.50
2017-08-04T21:39:22.396Z,17.50
2017-08-04T21:41:53.631Z,17.40
2017-08-04T21:44:21.761Z,17.40
2017-08-04T21:46:49.864Z,17.40
2017-08-04T21:49:18.102Z,17.40
2017-08-04T21:51:46.251Z,17.40
2017-08-04T21:54:14.476Z,17.50
2017-08-04T21:56:42.776Z,17.50
2017-08-04T21:59:10.906Z,17.50
2017-08-04T22:01:52.868Z,17.50
2017-08-04T22:04:30.751Z,17.40
2017-08-04T22:07:03.187Z,17.40
2017-08-04T22:09:32.729Z,17.30
2017-08-04T22:12:00.888Z,17.30
2017-08-04T22:14:29.022Z,17.30
2017-08-04T22:16:57.134Z,17.30
2017-08-04T22:19:25.253Z,17.40
2017-08-04T22:21:58.253Z,17.40
2017-08-04T22:24:50.163Z,17.50
2017-08-04T22:27:31.428Z,17.50
2017-08-04T22:30:02.293Z,17.50
2017-08-04T22:32:31.676Z,17.40
2017-08-04T22:35:03.702Z,17.40
2017-08-04T22:37:32.796Z,17.40
2017-08-04T22:40:04.350Z,17.40
2017-08-04T22:42:32.788Z,17.40
2017-08-04T22:45:02.626Z,17.40
2017-08-04T22:47:30.745Z,17.40
2017-08-04T22:50:36.889Z,17.40
2017-08-04T22:53:53.310Z,17.40
2017-08-04T22:59:20.539Z,17.40
2017-08-04T23:01:48.643Z,17.30
2017-08-04T23:04:16.798Z,17.30
2017-08-04T23:06:44.922Z,17.30
2017-08-04T23:09:17.040Z,17.30
2017-08-04T23:11:45.552Z,17.30
2017-08-04T23:14:15.254Z,17.30
2017-08-04T23:16:43.372Z,17.30
2017-08-04T23:19:11.461Z,17.30
2017-08-04T23:21:56.690Z,17.30
2017-08-04T23:24:24.809Z,17.30
2017-08-04T23:26:52.909Z,17.30
2017-08-04T23:29:21.010Z,17.30
2017-08-04T23:31:49.136Z,17.30
2017-08-04T23:34:17.246Z,17.30
2017-08-04T23:36:45.346Z,17.30
2017-08-04T23:39:13.726Z,17.30
2017-08-04T23:41:59.122Z,17.30
2017-08-04T23:44:27.241Z,17.30
2017-08-04T23:46:55.337Z,17.20
2017-08-04T23:49:23.449Z,17.20
2017-08-04T23:51:51.578Z,17.10
2017-08-04T23:54:19.708Z,17.20
2017-08-04T23:56:47.802Z,17.20
2017-08-04T23:59:15.941Z,17.10
